createdAt,value
2018-10-21T00:01:15.766Z,8.00
2018-10-21T00:03:19.795Z,7.90
2018-10-21T00:05:23.877Z,7.90
2018-10-21T00:07:27.989Z,7.90
2018-10-21T00:09:32.064Z,7.90
2018-10-21T00:11:36.177Z,7.90
2018-10-21T00:13:40.255Z,7.80
2018-10-21T00:15:44.459Z,7.80
2018-10-21T00:17:48.452Z,7.80
2018-10-21T00:19:52.569Z,7.80
2018-10-21T00:21:56.636Z,7.80
2018-10-21T00:24:00.953Z,7.70
2018-10-21T00:26:05.232Z,7.70
2018-10-21T00:28:09.343Z,7.70
2018-10-21T00:30:13.420Z,7.70
2018-10-21T00:32:17.512Z,7.70
2018-10-21T00:34:22.596Z,7.60
2018-10-21T00:36:26.652Z,7.70
2018-10-21T00:38:30.751Z,7.60
2018-10-21T00:40:35.008Z,7.60
2018-10-21T00:42:39.623Z,7.60
2018-10-21T00:44:43.729Z,7.60
2018-10-21T00:46:47.825Z,7.50
2018-10-21T00:48:52.020Z,7.50
2018-10-21T00:50:56.132Z,7.50
2018-10-21T00:53:00.183Z,7.50
2018-10-21T00:55:04.706Z,7.50
2018-10-21T00:57:08.884Z,7.40
2018-10-21T00:59:12.891Z,7.40
2018-10-21T01:01:16.983Z,7.40
2018-10-21T01:03:21.040Z,7.40
2018-10-21T01:05:31.933Z,7.40
2018-10-21T01:07:36.046Z,7.40
2018-10-21T01:11:41.624Z,7.30
2018-10-21T01:13:45.733Z,7.30
2018-10-21T01:15:49.831Z,7.30
2018-10-21T01:17:53.901Z,7.30
2018-10-21T01:19:58.036Z,7.30
2018-10-21T01:22:03.115Z,7.30
2018-10-21T01:24:07.416Z,7.20
2018-10-21T01:26:11.530Z,7.20
2018-10-21T01:28:15.605Z,7.20
2018-10-21T01:30:19.711Z,7.20
2018-10-21T01:32:23.780Z,7.20
2018-10-21T01:34:27.871Z,7.20
2018-10-21T01:36:32.160Z,7.10
2018-10-21T01:38:36.059Z,7.10
2018-10-21T01:40:43.017Z,7.10
2018-10-21T01:42:47.133Z,7.10
2018-10-21T01:44:51.228Z,7.10
2018-10-21T01:46:55.315Z,7.10
2018-10-21T01:48:59.392Z,7.00
2018-10-21T01:51:03.493Z,7.00
2018-10-21T01:53:08.763Z,7.00
2018-10-21T01:55:12.825Z,7.00
2018-10-21T01:57:16.974Z,7.00
2018-10-21T01:59:20.976Z,7.10
2018-10-21T02:01:25.091Z,6.90
2018-10-21T02:03:29.186Z,6.90
2018-10-21T02:05:35.157Z,6.90
2018-10-21T02:07:39.543Z,6.90
2018-10-21T02:09:43.638Z,6.90
2018-10-21T02:11:48.333Z,6.90
2018-10-21T02:13:52.537Z,6.90
2018-10-21T02:15:56.625Z,6.80
2018-10-21T02:18:00.738Z,6.80
2018-10-21T02:20:04.912Z,6.80
2018-10-21T02:22:08.974Z,6.80
2018-10-21T02:24:13.089Z,6.80
2018-10-21T02:26:17.167Z,6.80
2018-10-21T02:28:21.277Z,6.80
2018-10-21T02:30:27.659Z,6.70
2018-10-21T02:32:31.741Z,6.70
2018-10-21T02:34:35.845Z,6.70
2018-10-21T02:36:40.065Z,6.70
2018-10-21T02:38:44.136Z,6.70
2018-10-21T02:41:38.144Z,6.70
2018-10-21T02:43:42.305Z,6.70
2018-10-21T02:45:46.381Z,6.60
2018-10-21T02:47:50.434Z,6.60
2018-10-21T02:49:54.869Z,6.60
2018-10-21T02:52:10.664Z,6.60
2018-10-21T02:54:15.515Z,6.60
2018-10-21T02:56:19.634Z,6.60
2018-10-21T02:58:23.749Z,6.60
2018-10-21T03:00:27.852Z,6.50
2018-10-21T03:02:32.004Z,6.50
2018-10-21T03:04:36.196Z,6.50
2018-10-21T03:06:40.269Z,6.40
2018-10-21T03:08:44.389Z,6.50
2018-10-21T03:10:48.439Z,6.50
2018-10-21T03:12:52.522Z,6.50
2018-10-21T03:14:56.652Z,6.50
2018-10-21T03:17:00.757Z,6.40
2018-10-21T03:19:04.865Z,6.40
2018-10-21T03:21:09.093Z,6.40
2018-10-21T03:23:13.658Z,6.40
2018-10-21T03:25:17.709Z,6.40
2018-10-21T03:27:21.871Z,6.40
2018-10-21T03:29:25.979Z,6.30
2018-10-21T03:31:30.088Z,6.30
2018-10-21T03:33:35.206Z,6.30
2018-10-21T03:35:39.310Z,6.30
2018-10-21T03:37:43.321Z,6.30
2018-10-21T03:39:47.400Z,6.30
2018-10-21T03:41:51.504Z,6.30
2018-10-21T03:43:55.617Z,6.20
2018-10-21T03:45:59.728Z,6.20
2018-10-21T03:48:03.769Z,6.20
2018-10-21T03:50:07.869Z,6.20
2018-10-21T03:52:12.150Z,6.20
2018-10-21T03:54:16.124Z,6.10
2018-10-21T03:56:20.220Z,6.10
2018-10-21T03:58:24.365Z,6.10
2018-10-21T04:00:28.465Z,6.10
2018-10-21T04:02:32.535Z,6.10
2018-10-21T04:04:36.639Z,6.10
2018-10-21T04:06:40.738Z,6.10
2018-10-21T04:08:44.809Z,6.10
2018-10-21T04:10:48.957Z,6.10
2018-10-21T04:12:53.028Z,6.10
2018-10-21T04:14:57.123Z,6.10
2018-10-21T04:17:01.195Z,6.10
2018-10-21T04:19:05.555Z,6.10
2018-10-21T04:21:09.666Z,6.10
2018-10-21T04:23:13.807Z,6.10
2018-10-21T04:25:18.057Z,6.00
2018-10-21T04:27:22.169Z,6.10
2018-10-21T04:29:26.295Z,6.00
2018-10-21T04:31:30.380Z,6.00
2018-10-21T04:33:49.773Z,6.00
2018-10-21T04:35:53.863Z,6.00
2018-10-21T04:40:22.046Z,6.00
2018-10-21T04:42:26.151Z,6.00
2018-10-21T04:44:30.221Z,5.90
2018-10-21T04:46:34.350Z,5.80
2018-10-21T04:48:38.404Z,5.80
2018-10-21T04:50:42.575Z,5.80
2018-10-21T04:52:46.677Z,5.80
2018-10-21T04:54:50.947Z,5.80
2018-10-21T04:56:55.890Z,5.80
2018-10-21T04:58:59.944Z,5.80
2018-10-21T05:01:04.164Z,5.80
2018-10-21T05:03:08.264Z,5.70
2018-10-21T05:05:13.371Z,5.70
2018-10-21T05:07:17.499Z,5.70
2018-10-21T05:09:21.508Z,5.70
2018-10-21T05:11:25.606Z,5.70
2018-10-21T05:13:29.756Z,5.70
2018-10-21T05:15:35.100Z,5.70
2018-10-21T05:17:39.083Z,5.80
2018-10-21T05:19:43.180Z,5.70
2018-10-21T05:21:47.239Z,5.70
2018-10-21T05:23:51.567Z,5.70
2018-10-21T05:25:56.168Z,5.70
2018-10-21T05:28:00.230Z,5.70
2018-10-21T05:30:04.778Z,5.70
2018-10-21T05:32:08.863Z,5.70
2018-10-21T05:34:12.952Z,5.70
2018-10-21T05:36:18.305Z,5.70
2018-10-21T05:38:22.380Z,5.70
2018-10-21T05:40:26.483Z,5.60
2018-10-21T05:42:30.733Z,5.60
2018-10-21T05:44:34.793Z,5.60
2018-10-21T05:46:43.151Z,5.60
2018-10-21T05:48:47.212Z,5.60
2018-10-21T05:50:51.333Z,5.60
2018-10-21T05:52:56.329Z,5.60
2018-10-21T05:55:00.420Z,5.60
2018-10-21T05:57:04.516Z,5.60
2018-10-21T05:59:08.716Z,5.60
2018-10-21T06:01:12.760Z,5.50
2018-10-21T06:03:16.792Z,5.50
2018-10-21T06:05:46.048Z,5.50
2018-10-21T06:07:50.076Z,5.50
2018-10-21T06:09:54.304Z,5.50
2018-10-21T06:11:58.501Z,5.50
2018-10-21T06:14:02.804Z,5.50
2018-10-21T06:16:07.165Z,5.50
2018-10-21T06:18:14.109Z,5.50
2018-10-21T06:21:22.708Z,5.50
2018-10-21T06:23:26.837Z,5.50
2018-10-21T06:25:30.922Z,5.50
2018-10-21T06:27:35.099Z,5.50
2018-10-21T06:29:39.136Z,5.40
2018-10-21T06:31:43.252Z,5.50
2018-10-21T06:33:47.429Z,5.40
2018-10-21T06:35:51.439Z,5.40
2018-10-21T06:37:55.586Z,5.40
2018-10-21T06:39:59.752Z,5.40
2018-10-21T06:42:03.801Z,5.40
2018-10-21T06:44:07.897Z,5.40
2018-10-21T06:46:12.002Z,5.40
2018-10-21T06:48:16.097Z,5.50
2018-10-21T06:50:21.416Z,5.50
2018-10-21T06:52:25.553Z,5.50
2018-10-21T06:54:29.615Z,5.50
2018-10-21T06:56:33.879Z,5.50
2018-10-21T06:58:37.850Z,5.50
2018-10-21T07:00:41.968Z,5.60
2018-10-21T07:02:46.085Z,5.60
2018-10-21T07:04:50.244Z,5.60
2018-10-21T07:06:54.320Z,5.60
2018-10-21T07:09:03.052Z,5.60
2018-10-21T07:11:07.199Z,5.70
2018-10-21T07:13:11.293Z,5.70
2018-10-21T07:15:15.355Z,5.70
2018-10-21T07:17:19.452Z,5.70
2018-10-21T07:19:23.552Z,5.80
2018-10-21T07:21:27.665Z,5.80
2018-10-21T07:23:32.211Z,5.80
2018-10-21T07:25:36.319Z,5.90
2018-10-21T07:27:40.945Z,5.90
2018-10-21T07:29:45.044Z,5.90
2018-10-21T07:31:49.137Z,5.90
2018-10-21T07:33:53.222Z,6.00
2018-10-21T07:35:57.449Z,6.00
2018-10-21T07:38:02.204Z,6.10
2018-10-21T07:40:07.340Z,6.10
2018-10-21T07:42:11.323Z,6.20
2018-10-21T07:44:15.495Z,6.20
2018-10-21T07:46:19.639Z,6.20
2018-10-21T07:48:24.868Z,6.30
2018-10-21T07:50:28.968Z,6.30
2018-10-21T07:52:33.113Z,6.40
2018-10-21T07:54:37.492Z,6.40
2018-10-21T07:56:41.636Z,6.50
2018-10-21T07:58:46.675Z,6.50
2018-10-21T08:00:50.792Z,6.60
2018-10-21T08:02:54.918Z,6.60
2018-10-21T08:04:59.035Z,6.70
2018-10-21T08:07:20.302Z,6.70
2018-10-21T08:09:24.541Z,6.80
2018-10-21T08:11:28.720Z,6.80
2018-10-21T08:13:32.909Z,6.90
2018-10-21T08:15:37.065Z,6.90
2018-10-21T08:17:41.232Z,7.00
2018-10-21T08:19:45.324Z,7.00
2018-10-21T08:21:49.500Z,7.00
2018-10-21T08:23:53.644Z,7.10
2018-10-21T08:25:57.803Z,7.10
2018-10-21T08:28:01.999Z,7.20
2018-10-21T08:30:06.983Z,7.20
2018-10-21T08:32:11.102Z,7.30
2018-10-21T08:34:15.285Z,7.30
2018-10-21T08:36:19.433Z,7.40
2018-10-21T08:38:23.616Z,7.50
2018-10-21T08:40:27.944Z,7.50
2018-10-21T08:42:32.072Z,7.60
2018-10-21T08:44:36.176Z,7.60
2018-10-21T08:46:40.319Z,7.70
2018-10-21T08:48:44.484Z,7.70
2018-10-21T08:50:48.583Z,7.80
2018-10-21T08:52:52.767Z,7.90
2018-10-21T08:54:56.933Z,7.90
2018-10-21T08:57:01.027Z,8.00
2018-10-21T08:59:05.295Z,8.10
2018-10-21T09:01:09.504Z,8.20
2018-10-21T09:03:13.548Z,8.30
2018-10-21T09:05:18.940Z,8.30
2018-10-21T09:07:23.065Z,8.40
2018-10-21T09:09:27.244Z,8.60
2018-10-21T09:11:31.338Z,8.60
2018-10-21T09:13:35.456Z,8.70
2018-10-21T09:15:39.557Z,8.90
2018-10-21T09:17:43.729Z,9.00
2018-10-21T09:19:47.797Z,9.10
2018-10-21T09:21:51.916Z,9.20
2018-10-21T09:23:56.088Z,9.40
2018-10-21T09:26:00.216Z,9.50
2018-10-21T09:28:04.358Z,9.60
2018-10-21T09:30:10.500Z,9.80
2018-10-21T09:32:14.603Z,10.00
2018-10-21T09:34:18.741Z,10.10
2018-10-21T09:36:22.808Z,10.30
2018-10-21T09:38:27.520Z,10.40
2018-10-21T09:40:31.604Z,10.60
2018-10-21T09:42:35.725Z,10.80
2018-10-21T09:44:39.877Z,10.90
2018-10-21T09:46:43.996Z,11.10
2018-10-21T09:48:48.093Z,11.30
2018-10-21T09:50:52.248Z,11.40
2018-10-21T09:52:56.324Z,11.70
2018-10-21T09:55:00.527Z,11.80
2018-10-21T09:57:05.001Z,12.00
2018-10-21T09:59:09.356Z,12.20
2018-10-21T10:01:18.826Z,12.40
2018-10-21T10:03:22.913Z,12.60
2018-10-21T10:05:27.803Z,12.80
2018-10-21T10:07:31.895Z,13.00
2018-10-21T10:09:36.085Z,13.30
2018-10-21T10:11:40.381Z,13.40
2018-10-21T10:13:44.523Z,13.60
2018-10-21T10:15:48.636Z,13.80
2018-10-21T10:17:53.027Z,14.00
2018-10-21T10:19:57.118Z,14.20
2018-10-21T10:22:01.245Z,14.40
2018-10-21T10:24:05.433Z,14.60
2018-10-21T10:26:09.533Z,14.80
2018-10-21T10:28:13.810Z,15.00
2018-10-21T10:30:17.838Z,15.20
2018-10-21T10:32:21.909Z,15.40
2018-10-21T10:34:26.068Z,15.60
2018-10-21T10:36:30.173Z,15.70
2018-10-21T10:38:34.280Z,15.90
2018-10-21T10:40:38.419Z,16.10
2018-10-21T10:42:42.924Z,16.30
2018-10-21T10:44:47.077Z,16.50
2018-10-21T10:46:51.200Z,16.60
2018-10-21T10:48:55.343Z,16.70
2018-10-21T10:50:59.572Z,16.90
2018-10-21T10:53:03.845Z,17.00
2018-10-21T10:55:08.673Z,17.20
2018-10-21T10:57:12.749Z,17.30
2018-10-21T10:59:16.828Z,17.40
2018-10-21T11:01:21.031Z,17.50
2018-10-21T11:03:25.174Z,17.70
2018-10-21T11:05:30.451Z,17.80
2018-10-21T11:07:34.635Z,17.90
2018-10-21T11:09:38.739Z,18.00
2018-10-21T11:11:42.950Z,18.10
2018-10-21T11:13:47.045Z,18.20
2018-10-21T11:15:51.256Z,18.40
2018-10-21T11:17:55.381Z,18.50
2018-10-21T11:19:59.489Z,18.50
2018-10-21T11:22:03.667Z,18.60
2018-10-21T11:24:07.729Z,18.70
2018-10-21T11:26:11.813Z,18.80
2018-10-21T11:28:16.000Z,18.90
2018-10-21T11:30:20.049Z,18.90
2018-10-21T11:32:24.218Z,19.00
2018-10-21T11:34:28.316Z,19.10
2018-10-21T11:36:32.503Z,19.10
2018-10-21T11:38:36.614Z,19.20
2018-10-21T11:40:40.707Z,19.20
2018-10-21T11:42:44.838Z,19.30
2018-10-21T11:44:48.935Z,19.30
2018-10-21T11:46:53.338Z,19.30
2018-10-21T11:48:57.552Z,19.30
2018-10-21T11:51:01.652Z,19.30
2018-10-21T11:53:06.224Z,19.40
2018-10-21T11:55:11.861Z,19.40
2018-10-21T11:57:15.947Z,19.40
2018-10-21T11:59:20.084Z,19.40
2018-10-21T12:01:24.237Z,19.40
2018-10-21T12:03:28.376Z,19.40
2018-10-21T12:05:32.512Z,19.40
2018-10-21T12:07:36.693Z,19.50
2018-10-21T12:09:40.839Z,19.50
2018-10-21T12:11:44.924Z,19.50
2018-10-21T12:13:49.076Z,19.50
2018-10-21T12:15:53.195Z,19.60
2018-10-21T12:17:57.456Z,19.60
2018-10-21T12:20:01.584Z,19.60
2018-10-21T12:22:06.014Z,19.60
2018-10-21T12:24:10.158Z,19.60
2018-10-21T12:26:14.274Z,19.60
2018-10-21T12:28:18.561Z,19.60
2018-10-21T12:30:22.560Z,19.60
2018-10-21T12:32:26.701Z,19.60
2018-10-21T12:34:31.960Z,19.60
2018-10-21T12:36:36.072Z,19.70
2018-10-21T12:38:40.203Z,19.70
2018-10-21T12:40:44.362Z,19.70
2018-10-21T12:42:48.461Z,19.70
2018-10-21T12:44:52.625Z,19.70
2018-10-21T12:46:56.763Z,19.70
2018-10-21T12:49:00.929Z,19.80
2018-10-21T12:51:05.147Z,19.80
2018-10-21T12:53:09.471Z,19.80
2018-10-21T12:55:13.585Z,19.80
2018-10-21T12:57:17.623Z,19.80
2018-10-21T12:59:21.729Z,19.80
2018-10-21T13:01:25.913Z,19.80
2018-10-21T13:03:30.077Z,19.80
2018-10-21T13:05:34.141Z,19.80
2018-10-21T13:07:38.290Z,19.80
2018-10-21T13:09:42.432Z,19.80
2018-10-21T13:11:46.547Z,19.80
2018-10-21T13:13:50.661Z,19.80
2018-10-21T13:15:54.831Z,19.80
2018-10-21T13:17:58.977Z,19.80
2018-10-21T13:20:03.164Z,19.80
2018-10-21T13:22:07.316Z,19.80
2018-10-21T13:24:12.610Z,19.80
2018-10-21T13:26:16.771Z,19.80
2018-10-21T13:28:20.998Z,19.80
2018-10-21T13:30:25.013Z,19.80
2018-10-21T13:32:29.117Z,19.80
2018-10-21T13:34:33.297Z,19.80
2018-10-21T13:36:37.375Z,19.80
2018-10-21T13:38:41.513Z,19.80
2018-10-21T13:40:45.632Z,19.80
2018-10-21T13:42:49.753Z,19.70
2018-10-21T13:44:53.845Z,19.70
2018-10-21T13:46:57.951Z,19.70
2018-10-21T13:49:02.137Z,19.70
2018-10-21T13:51:06.593Z,19.70
2018-10-21T13:53:10.867Z,19.70
2018-10-21T13:55:14.963Z,19.70
2018-10-21T13:57:18.975Z,19.70
2018-10-21T13:59:23.126Z,19.60
2018-10-21T14:01:27.558Z,19.60
2018-10-21T14:03:32.687Z,19.60
2018-10-21T14:05:36.817Z,19.60
2018-10-21T14:07:40.937Z,19.60
2018-10-21T14:09:45.069Z,19.60
2018-10-21T14:11:49.167Z,19.60
2018-10-21T14:13:53.289Z,19.50
2018-10-21T14:15:57.430Z,19.50
2018-10-21T14:18:01.493Z,19.50
2018-10-21T14:20:07.329Z,19.50
2018-10-21T14:22:11.553Z,19.50
2018-10-21T14:24:15.664Z,19.50
2018-10-21T14:26:19.701Z,19.40
2018-10-21T14:28:23.828Z,19.40
2018-10-21T14:30:28.025Z,19.40
2018-10-21T14:32:32.915Z,19.40
2018-10-21T14:34:37.065Z,19.40
2018-10-21T14:36:41.188Z,19.40
2018-10-21T14:38:45.396Z,19.30
2018-10-21T14:40:49.488Z,19.30
2018-10-21T14:42:53.607Z,19.30
2018-10-21T14:44:57.721Z,19.30
2018-10-21T14:47:01.799Z,19.30
2018-10-21T14:49:06.392Z,19.20
2018-10-21T14:51:10.714Z,19.20
2018-10-21T14:53:14.815Z,19.20
2018-10-21T14:55:19.024Z,19.10
2018-10-21T14:57:23.057Z,19.10
2018-10-21T14:59:27.247Z,19.00
2018-10-21T15:01:31.377Z,19.00
2018-10-21T15:03:35.810Z,18.90
2018-10-21T15:05:39.872Z,18.90
2018-10-21T15:07:45.724Z,18.80
2018-10-21T15:09:50.345Z,18.70
2018-10-21T15:11:54.386Z,18.70
2018-10-21T15:13:58.476Z,18.70
2018-10-21T15:16:02.702Z,18.60
2018-10-21T15:18:06.759Z,18.50
2018-10-21T15:20:12.639Z,18.40
2018-10-21T15:22:16.739Z,18.30
2018-10-21T15:24:20.773Z,18.20
2018-10-21T15:26:24.883Z,18.10
2018-10-21T15:28:29.038Z,18.00
2018-10-21T15:30:33.538Z,17.90
2018-10-21T15:32:37.821Z,17.80
2018-10-21T15:34:42.054Z,17.80
2018-10-21T15:36:46.155Z,17.70
2018-10-21T15:38:50.229Z,17.60
2018-10-21T15:40:54.979Z,17.50
2018-10-21T15:42:59.102Z,17.50
2018-10-21T15:45:03.334Z,17.40
2018-10-21T15:47:07.439Z,17.20
2018-10-21T15:49:11.635Z,17.20
2018-10-21T15:51:15.806Z,17.10
2018-10-21T15:53:19.940Z,17.00
2018-10-21T15:55:24.037Z,16.90
2018-10-21T15:57:28.180Z,16.80
2018-10-21T15:59:32.696Z,16.70
2018-10-21T16:01:36.845Z,16.60
2018-10-21T16:03:41.682Z,16.50
2018-10-21T16:05:45.819Z,16.40
2018-10-21T16:07:49.927Z,16.40
2018-10-21T16:09:54.053Z,16.30
2018-10-21T16:11:58.184Z,16.20
2018-10-21T16:14:02.891Z,16.10
2018-10-21T16:16:07.365Z,16.10
2018-10-21T16:18:11.372Z,15.90
2018-10-21T16:20:15.664Z,15.90
2018-10-21T16:22:19.715Z,15.80
2018-10-21T16:24:23.757Z,15.80
2018-10-21T16:26:27.948Z,15.70
2018-10-21T16:28:32.022Z,15.60
2018-10-21T16:30:36.218Z,15.60
2018-10-21T16:32:40.976Z,15.50
2018-10-21T16:34:44.960Z,15.50
2018-10-21T16:36:49.292Z,15.40
2018-10-21T16:38:54.178Z,15.30
2018-10-21T16:40:58.272Z,15.30
2018-10-21T16:43:02.403Z,15.20
2018-10-21T16:45:07.258Z,15.20
2018-10-21T16:47:11.341Z,15.10
2018-10-21T16:49:15.500Z,15.00
2018-10-21T16:51:19.721Z,15.00
2018-10-21T16:53:23.859Z,14.90
2018-10-21T16:55:27.893Z,14.90
2018-10-21T16:57:32.110Z,14.80
2018-10-21T16:59:36.218Z,14.80
2018-10-21T17:01:40.352Z,14.70
2018-10-21T17:03:44.526Z,14.70
2018-10-21T17:05:48.652Z,14.60
2018-10-21T17:07:52.816Z,14.60
2018-10-21T17:09:57.292Z,14.60
2018-10-21T17:12:01.005Z,14.50
2018-10-21T17:14:05.167Z,14.50
2018-10-21T17:16:09.311Z,14.40
2018-10-21T17:18:14.426Z,14.40
2018-10-21T17:20:18.943Z,14.30
2018-10-21T17:22:23.060Z,14.20
2018-10-21T17:24:27.184Z,14.20
2018-10-21T17:26:31.276Z,14.10
2018-10-21T17:28:35.526Z,14.10
2018-10-21T17:30:39.651Z,14.00
2018-10-21T17:32:44.225Z,14.00
2018-10-21T17:34:48.392Z,13.90
2018-10-21T17:36:52.521Z,13.80
2018-10-21T17:38:56.599Z,13.80
2018-10-21T17:41:00.744Z,13.70
2018-10-21T17:43:04.914Z,13.70
2018-10-21T17:45:13.607Z,13.60
2018-10-21T17:47:17.705Z,13.60
2018-10-21T17:49:22.491Z,13.50
2018-10-21T17:51:26.656Z,13.50
2018-10-21T17:53:30.744Z,13.40
2018-10-21T17:55:35.140Z,13.40
2018-10-21T17:57:39.235Z,13.30
2018-10-21T17:59:43.416Z,13.20
2018-10-21T18:01:47.572Z,13.20
2018-10-21T18:03:51.900Z,13.20
2018-10-21T18:05:56.012Z,13.10
2018-10-21T18:08:00.168Z,13.10
2018-10-21T18:10:04.561Z,13.00
2018-10-21T18:12:08.699Z,13.00
2018-10-21T18:14:12.791Z,12.90
2018-10-21T18:16:16.971Z,12.90
2018-10-21T18:18:21.026Z,12.80
2018-10-21T18:20:26.272Z,12.80
2018-10-21T18:22:30.365Z,12.80
2018-10-21T18:24:35.389Z,12.70
2018-10-21T18:26:39.540Z,12.70
2018-10-21T18:28:43.619Z,12.60
2018-10-21T18:30:47.719Z,12.60
2018-10-21T18:32:51.849Z,12.60
2018-10-21T18:34:55.923Z,12.50
2018-10-21T18:37:00.140Z,12.50
2018-10-21T18:39:06.032Z,12.50
2018-10-21T18:41:10.306Z,12.40
2018-10-21T18:43:14.363Z,12.30
2018-10-21T18:45:18.517Z,12.30
2018-10-21T18:47:22.659Z,12.30
2018-10-21T18:49:26.784Z,12.20
2018-10-21T18:51:30.882Z,12.20
2018-10-21T18:53:35.001Z,12.10
2018-10-21T18:55:39.142Z,12.10
2018-10-21T18:57:43.263Z,12.10
2018-10-21T18:59:47.375Z,12.00
2018-10-21T19:01:51.482Z,12.00
2018-10-21T19:03:55.616Z,11.90
2018-10-21T19:05:59.750Z,11.90
2018-10-21T19:08:03.864Z,11.90
2018-10-21T19:10:11.092Z,11.80
2018-10-21T19:12:15.074Z,11.80
2018-10-21T19:14:19.218Z,11.80
2018-10-21T19:16:23.369Z,11.70
2018-10-21T19:18:27.541Z,11.70
2018-10-21T19:20:31.720Z,11.70
2018-10-21T19:22:35.802Z,11.70
2018-10-21T19:24:40.020Z,11.70
2018-10-21T19:26:49.941Z,11.60
2018-10-21T19:28:54.097Z,11.60
2018-10-21T19:30:58.347Z,11.50
2018-10-21T19:33:02.418Z,11.50
2018-10-21T19:35:07.712Z,11.40
2018-10-21T19:37:11.925Z,11.40
2018-10-21T19:39:19.555Z,11.40
2018-10-21T19:41:23.852Z,11.30
2018-10-21T19:43:28.130Z,11.30
2018-10-21T19:45:32.194Z,11.20
2018-10-21T19:47:36.579Z,11.20
2018-10-21T19:49:40.687Z,11.20
2018-10-21T19:51:44.815Z,11.10
2018-10-21T19:53:48.871Z,11.10
2018-10-21T19:55:53.000Z,11.00
2018-10-21T19:57:58.271Z,11.00
2018-10-21T20:00:02.461Z,11.00
2018-10-21T20:02:06.994Z,10.90
2018-10-21T20:04:11.362Z,10.90
2018-10-21T20:06:15.475Z,10.90
2018-10-21T20:08:19.618Z,10.80
2018-10-21T20:10:23.857Z,10.80
2018-10-21T20:12:27.987Z,10.70
2018-10-21T20:14:32.083Z,10.70
2018-10-21T20:16:36.224Z,10.70
2018-10-21T20:18:40.368Z,10.60
2018-10-21T20:20:45.821Z,10.60
2018-10-21T20:22:49.983Z,10.50
2018-10-21T20:24:54.987Z,10.50
2018-10-21T20:26:59.205Z,10.50
2018-10-21T20:29:03.493Z,10.40
2018-10-21T20:31:07.693Z,10.40
2018-10-21T20:33:12.293Z,10.30
2018-10-21T20:35:16.482Z,10.30
2018-10-21T20:37:20.612Z,10.30
2018-10-21T20:39:24.776Z,10.30
2018-10-21T20:41:28.953Z,10.20
2018-10-21T20:43:33.084Z,10.20
2018-10-21T20:45:37.183Z,10.20
2018-10-21T20:47:41.416Z,10.10
2018-10-21T20:49:45.635Z,10.10
2018-10-21T20:51:49.820Z,10.00
2018-10-21T20:53:53.924Z,10.00
2018-10-21T20:55:58.952Z,10.00
2018-10-21T20:58:03.165Z,10.00
2018-10-21T21:00:07.211Z,9.90
2018-10-21T21:02:12.582Z,9.90
2018-10-21T21:04:16.925Z,9.90
2018-10-21T21:06:21.004Z,9.80
2018-10-21T21:08:25.169Z,9.80
2018-10-21T21:10:29.396Z,9.80
2018-10-21T21:12:33.540Z,9.70
2018-10-21T21:14:38.761Z,9.70
2018-10-21T21:16:43.069Z,9.70
2018-10-21T21:18:47.357Z,9.70
2018-10-21T21:20:51.452Z,9.70
2018-10-21T21:22:55.933Z,9.60
2018-10-21T21:25:00.049Z,9.60
2018-10-21T21:27:04.205Z,9.60
2018-10-21T21:29:08.364Z,9.60
2018-10-21T21:31:12.471Z,9.50
2018-10-21T21:33:16.580Z,9.50
2018-10-21T21:35:20.680Z,9.50
2018-10-21T21:37:24.765Z,9.50
2018-10-21T21:39:29.596Z,9.50
2018-10-21T21:41:33.700Z,9.50
2018-10-21T21:43:38.936Z,9.40
2018-10-21T21:45:43.060Z,9.40
2018-10-21T21:47:47.239Z,9.40
2018-10-21T21:49:51.310Z,9.40
2018-10-21T21:51:55.405Z,9.30
2018-10-21T21:53:59.591Z,9.30
2018-10-21T21:56:03.616Z,9.30
2018-10-21T21:58:07.921Z,9.30
2018-10-21T22:00:13.924Z,9.20
2018-10-21T22:02:19.092Z,9.20
2018-10-21T22:04:23.190Z,9.20
2018-10-21T22:06:27.451Z,9.20
2018-10-21T22:08:31.673Z,9.10
2018-10-21T22:10:35.748Z,9.10
2018-10-21T22:12:40.820Z,9.10
2018-10-21T22:14:44.944Z,9.10
2018-10-21T22:16:49.025Z,9.00
2018-10-21T22:18:53.118Z,9.00
2018-10-21T22:20:57.220Z,9.00
2018-10-21T22:23:01.330Z,8.90
2018-10-21T22:25:05.801Z,8.90
2018-10-21T22:27:09.967Z,8.80
2018-10-21T22:29:14.040Z,8.90
2018-10-21T22:31:18.180Z,8.80
2018-10-21T22:33:22.286Z,8.80
2018-10-21T22:35:26.397Z,8.80
2018-10-21T22:37:30.613Z,8.70
2018-10-21T22:39:34.856Z,8.70
2018-10-21T22:41:39.580Z,8.70
2018-10-21T22:43:43.682Z,8.70
2018-10-21T22:45:47.745Z,8.70
2018-10-21T22:47:51.844Z,8.70
2018-10-21T22:49:56.027Z,8.60
2018-10-21T22:52:00.299Z,8.60
2018-10-21T22:54:04.400Z,8.60
2018-10-21T22:56:08.500Z,8.60
2018-10-21T22:58:12.662Z,8.60
2018-10-21T23:00:16.813Z,8.50
2018-10-21T23:02:20.896Z,8.50
2018-10-21T23:04:25.041Z,8.50
2018-10-21T23:06:29.169Z,8.50
2018-10-21T23:08:33.228Z,8.40
2018-10-21T23:10:37.345Z,8.50
2018-10-21T23:12:41.448Z,8.40
2018-10-21T23:14:45.674Z,8.40
2018-10-21T23:16:49.769Z,8.40
2018-10-21T23:20:05.821Z,8.40
2018-10-21T23:22:10.081Z,8.40
2018-10-21T23:24:14.294Z,8.30
2018-10-21T23:26:18.375Z,8.30
2018-10-21T23:28:22.473Z,8.20
2018-10-21T23:30:26.548Z,8.20
2018-10-21T23:32:30.640Z,8.20
2018-10-21T23:34:34.709Z,8.20
2018-10-21T23:36:39.960Z,8.20
2018-10-21T23:38:44.076Z,8.10
2018-10-21T23:40:48.124Z,8.10
2018-10-21T23:42:52.240Z,8.10
2018-10-21T23:44:56.344Z,8.10
2018-10-21T23:47:00.419Z,8.10
2018-10-21T23:49:04.569Z,8.00
2018-10-21T23:51:08.621Z,8.10
2018-10-21T23:53:12.725Z,8.00
2018-10-21T23:55:16.787Z,8.00
2018-10-21T23:57:20.908Z,8.00
2018-10-21T23:59:24.994Z,8.00
